Time;durP1;ratioP1;P1;durP2;ratioP2;P2;SDS_P1;SDS_P2;PMS_P1;PMS_P2;Temp;Humidity;BMP_temperature;BMP_pressure;BME280_temperature;BME280_humidity;BME280_pressure;Samples;Min_cycle;Max_cycle;Signal;HPM_P1;HPM_P2
2023/01/12 00:01:15;;;;;;;0.00;0.00;;;7.00;99.90;;;;;;4997205;28;20242;-65
2023/01/12 00:03:40;;;;;;;0.00;0.00;;;7.00;99.90;;;;;;5014398;28;20179;-65
2023/01/12 00:06:06;;;;;;;0.00;0.00;;;7.00;99.90;;;;;;5014627;28;20261;-65
2023/01/12 00:08:33;;;;;;;0.00;0.00;;;7.10;99.90;;;;;;5014580;28;20242;-65
2023/01/12 00:10:59;;;;;;;0.00;0.00;;;7.10;99.90;;;;;;5014491;28;20186;-65
2023/01/12 00:13:26;;;;;;;0.00;0.00;;;7.10;99.90;;;;;;5013043;28;20646;-65
2023/01/12 00:18:44;;;;;;;0.00;0.00;;;7.20;99.90;;;;;;5002041;28;20186;-65
2023/01/12 00:21:10;;;;;;;0.10;0.10;;;7.20;99.90;;;;;;5005877;28;20186;-65
2023/01/12 00:23:35;;;;;;;0.00;0.00;;;7.20;99.90;;;;;;5013974;28;20643;-65
2023/01/12 00:26:01;;;;;;;0.00;0.00;;;7.20;99.90;;;;;;5013278;28;20261;-65
2023/01/12 00:28:27;;;;;;;0.00;0.00;;;7.20;99.90;;;;;;4991002;28;20180;-65
2023/01/12 00:30:52;;;;;;;0.00;0.00;;;7.20;99.90;;;;;;4994614;28;20665;-65
2023/01/12 00:33:18;;;;;;;0.00;0.00;;;7.20;99.90;;;;;;4988680;28;20179;-65
2023/01/12 00:35:44;;;;;;;0.00;0.00;;;7.30;99.90;;;;;;4996230;28;20846;-65
2023/01/12 00:38:10;;;;;;;0.00;0.00;;;7.30;99.90;;;;;;5014097;28;20201;-65
2023/01/12 00:40:35;;;;;;;0.10;0.10;;;7.30;99.90;;;;;;5013829;28;20167;-65
2023/01/12 00:45:51;;;;;;;0.00;0.00;;;7.40;99.90;;;;;;5013848;28;20222;-65
2023/01/12 00:48:17;;;;;;;0.00;0.00;;;7.40;99.90;;;;;;5013864;28;20171;-66
2023/01/12 00:50:42;;;;;;;0.00;0.00;;;7.40;99.90;;;;;;5013486;28;20249;-66
2023/01/12 00:53:08;;;;;;;0.00;0.00;;;7.40;99.90;;;;;;4996101;28;20223;-66
2023/01/12 00:55:33;;;;;;;0.00;0.00;;;7.40;99.90;;;;;;4992702;28;20195;-65
2023/01/12 00:57:59;;;;;;;0.00;0.00;;;7.40;99.90;;;;;;4997189;28;20186;-65
2023/01/12 01:00:25;;;;;;;0.00;0.00;;;7.40;99.90;;;;;;4993949;28;20183;-65
2023/01/12 01:02:50;;;;;;;0.00;0.00;;;7.40;99.90;;;;;;5003551;28;20186;-65
2023/01/12 01:05:18;;;;;;;0.25;0.25;;;7.50;99.90;;;;;;5013249;28;20218;-65
2023/01/12 01:07:46;;;;;;;0.05;0.05;;;7.50;99.90;;;;;;5013154;28;20190;-65
2023/01/12 01:10:12;;;;;;;0.00;0.00;;;7.50;99.90;;;;;;5013440;28;20693;-65
2023/01/12 01:12:39;;;;;;;0.00;0.00;;;7.50;99.90;;;;;;5013153;28;20179;-65
2023/01/12 01:15:05;;;;;;;0.00;0.00;;;7.50;99.90;;;;;;5013092;28;20175;-65
2023/01/12 01:17:30;;;;;;;0.00;0.00;;;7.60;99.90;;;;;;5013030;28;20178;-65
2023/01/12 01:19:56;;;;;;;0.00;0.00;;;7.60;99.90;;;;;;5013042;28;20189;-65
2023/01/12 01:22:21;;;;;;;0.00;0.00;;;7.60;99.90;;;;;;5012666;28;20272;-65
2023/01/12 01:24:47;;;;;;;0.00;0.00;;;7.60;99.90;;;;;;5012475;28;20285;-65
2023/01/12 01:27:13;;;;;;;0.00;0.00;;;7.60;99.90;;;;;;5012848;28;20549;-65
2023/01/12 01:29:38;;;;;;;0.00;0.00;;;7.60;99.90;;;;;;5012646;28;20650;-65
2023/01/12 01:32:05;;;;;;;0.00;0.00;;;7.60;99.90;;;;;;5012527;28;20171;-65
2023/01/12 01:34:30;;;;;;;0.00;0.00;;;7.60;99.90;;;;;;5009655;28;20193;-65
2023/01/12 01:36:56;;;;;;;0.00;0.00;;;7.70;99.90;;;;;;4998404;28;20537;-65
2023/01/12 01:39:21;;;;;;;0.00;0.00;;;7.70;99.90;;;;;;5011845;28;20175;-65
2023/01/12 01:41:47;;;;;;;0.00;0.00;;;7.70;99.90;;;;;;5012073;28;20635;-65
2023/01/12 01:44:28;;;;;;;0.00;0.00;;;7.70;99.90;;;;;;5011883;28;20175;-65
2023/01/12 01:47:29;;;;;;;0.00;0.00;;;7.70;99.90;;;;;;5007686;28;20558;-65
2023/01/12 01:49:57;;;;;;;0.00;0.00;;;7.70;99.90;;;;;;5011822;28;20193;-65
2023/01/12 01:52:27;;;;;;;0.00;0.00;;;7.70;99.90;;;;;;5003433;28;20180;-65
2023/01/12 01:55:25;;;;;;;0.15;0.15;;;7.70;99.90;;;;;;4992628;28;20211;-66
2023/01/12 01:57:56;;;;;;;0.00;0.00;;;7.70;99.90;;;;;;5005097;28;20310;-65
2023/01/12 02:00:23;;;;;;;0.00;0.00;;;7.70;99.90;;;;;;5005100;28;20195;-65
2023/01/12 02:02:50;;;;;;;0.00;0.00;;;7.80;99.90;;;;;;5002055;28;20179;-65
2023/01/12 02:05:19;;;;;;;0.00;0.00;;;7.80;99.90;;;;;;4994819;28;20224;-65
2023/01/12 02:07:47;;;;;;;0.00;0.00;;;7.80;99.90;;;;;;4992393;28;20236;-65
2023/01/12 02:10:13;;;;;;;0.00;0.00;;;7.90;99.90;;;;;;5010088;28;20237;-65
2023/01/12 02:18:29;;;;;;;0.00;0.00;;;8.00;99.90;;;;;;5012402;28;20202;-65
2023/01/12 02:21:02;;;;;;;0.00;0.00;;;8.00;99.90;;;;;;5012016;28;20178;-65
2023/01/12 02:23:45;;;;;;;0.00;0.00;;;8.00;99.90;;;;;;5011824;28;20254;-65
2023/01/12 02:26:13;;;;;;;0.00;0.00;;;8.00;99.90;;;;;;5011827;28;20218;-65
2023/01/12 02:29:17;;;;;;;0.00;0.00;;;8.10;99.90;;;;;;5011665;28;20225;-65
2023/01/12 02:32:06;;;;;;;0.00;0.00;;;8.10;99.90;;;;;;5011728;28;20213;-65
2023/01/12 02:34:46;;;;;;;0.00;0.00;;;8.10;99.90;;;;;;5011660;28;20182;-65
2023/01/12 02:37:48;;;;;;;0.00;0.00;;;8.10;99.90;;;;;;5011058;28;20174;-65
2023/01/12 02:40:17;;;;;;;0.00;0.00;;;8.10;99.90;;;;;;5011841;28;20182;-65
2023/01/12 02:43:09;;;;;;;0.00;0.00;;;8.10;99.90;;;;;;5011623;28;20171;-65
2023/01/12 02:45:50;;;;;;;0.00;0.00;;;8.10;99.90;;;;;;4993720;28;20868;-65
2023/01/12 02:48:44;;;;;;;0.00;0.00;;;8.10;99.90;;;;;;5011764;28;20175;-65
2023/01/12 02:51:15;;;;;;;0.00;0.00;;;8.10;99.90;;;;;;5011684;28;20205;-65
2023/01/12 02:53:58;;;;;;;0.00;0.00;;;8.10;99.90;;;;;;5010809;28;20236;-65
2023/01/12 02:56:30;;;;;;;0.00;0.00;;;8.10;99.90;;;;;;4991986;28;20238;-65
2023/01/12 02:59:01;;;;;;;0.00;0.00;;;8.20;99.90;;;;;;5009714;28;20182;-66
2023/01/12 03:01:27;;;;;;;0.00;0.00;;;8.20;99.90;;;;;;5011271;28;20258;-65
2023/01/12 03:03:57;;;;;;;0.00;0.00;;;8.20;99.90;;;;;;5011259;28;20646;-66
2023/01/12 03:06:22;;;;;;;0.00;0.00;;;8.20;99.90;;;;;;5009043;28;20309;-66
2023/01/12 03:08:48;;;;;;;0.00;0.00;;;8.20;99.90;;;;;;5010912;28;20273;-65
2023/01/12 03:11:16;;;;;;;0.20;0.20;;;8.20;99.90;;;;;;5011780;28;20186;-65
2023/01/12 03:13:51;;;;;;;0.00;0.00;;;8.20;99.90;;;;;;5002914;28;20194;-66
2023/01/12 03:16:31;;;;;;;0.00;0.00;;;8.20;99.90;;;;;;4974671;28;20183;-66
2023/01/12 03:19:02;;;;;;;0.00;0.00;;;8.10;99.90;;;;;;4992104;28;20171;-65
2023/01/12 03:21:41;;;;;;;0.00;0.00;;;8.10;99.90;;;;;;4991935;28;20183;-66
2023/01/12 03:24:09;;;;;;;0.00;0.00;;;8.10;99.90;;;;;;4992005;28;20172;-65
2023/01/12 03:26:38;;;;;;;0.00;0.00;;;8.10;99.90;;;;;;5005489;28;20207;-65
2023/01/12 03:29:18;;;;;;;0.00;0.00;;;8.10;99.90;;;;;;4974454;28;20210;-65
2023/01/12 03:31:44;;;;;;;0.00;0.00;;;8.10;99.90;;;;;;4991690;28;20175;-65
2023/01/12 03:34:10;;;;;;;0.00;0.00;;;8.10;99.90;;;;;;4992026;28;20685;-65
2023/01/12 03:36:44;;;;;;;0.00;0.00;;;8.10;99.90;;;;;;4991794;28;20184;-65
2023/01/12 03:39:27;;;;;;;0.00;0.00;;;8.10;99.90;;;;;;4991851;28;20180;-66
2023/01/12 03:42:03;;;;;;;0.00;0.00;;;8.10;99.90;;;;;;4991807;28;20195;-65
2023/01/12 03:44:45;;;;;;;0.00;0.00;;;8.10;99.90;;;;;;5005706;28;20190;-65
2023/01/12 03:47:19;;;;;;;0.00;0.00;;;8.10;99.90;;;;;;5012107;28;20187;-65
2023/01/12 03:49:51;;;;;;;0.00;0.00;;;8.10;99.90;;;;;;5014792;28;20178;-65
2023/01/12 03:52:18;;;;;;;0.00;0.00;;;8.10;99.90;;;;;;5014809;28;20654;-65
2023/01/12 03:54:46;;;;;;;0.00;0.00;;;8.20;99.90;;;;;;5014399;28;20230;-65
2023/01/12 03:57:13;;;;;;;0.00;0.00;;;8.20;99.90;;;;;;5014612;28;20175;-66
2023/01/12 03:59:39;;;;;;;0.00;0.00;;;8.20;99.90;;;;;;5014806;28;20273;-66
2023/01/12 04:02:05;;;;;;;0.00;0.00;;;8.20;99.90;;;;;;5014693;28;20183;-65
2023/01/12 04:04:30;;;;;;;0.00;0.00;;;8.20;99.90;;;;;;4996956;28;20229;-65
2023/01/12 04:06:56;;;;;;;0.00;0.00;;;8.20;99.90;;;;;;5014684;28;20543;-65
2023/01/12 04:09:24;;;;;;;0.00;0.00;;;8.20;99.90;;;;;;5013902;28;20182;-65
2023/01/12 04:14:33;;;;;;;0.00;0.00;;;8.20;99.90;;;;;;5005860;28;20179;-65
2023/01/12 04:16:59;;;;;;;0.00;0.00;;;8.20;99.90;;;;;;4995080;28;20179;-65
2023/01/12 04:19:24;;;;;;;0.00;0.00;;;8.20;99.90;;;;;;5007902;28;20179;-65
2023/01/12 04:24:34;;;;;;;0.00;0.00;;;8.30;99.90;;;;;;5014450;28;20309;-65
2023/01/12 04:26:59;;;;;;;0.00;0.00;;;8.30;99.90;;;;;;5014278;28;20285;-65
2023/01/12 04:29:25;;;;;;;0.00;0.00;;;8.30;99.90;;;;;;5014107;28;20188;-65
2023/01/12 04:31:50;;;;;;;0.00;0.00;;;8.30;99.90;;;;;;4997822;28;20192;-65
2023/01/12 04:34:16;;;;;;;0.00;0.00;;;8.40;99.90;;;;;;5004731;28;20190;-65
2023/01/12 04:36:42;;;;;;;0.00;0.00;;;8.40;99.90;;;;;;5012409;28;20178;-65
2023/01/12 04:39:08;;;;;;;0.00;0.00;;;8.40;99.90;;;;;;5013659;28;20210;-65
2023/01/12 04:41:33;;;;;;;0.00;0.00;;;8.40;99.90;;;;;;5013312;28;20273;-66
2023/01/12 04:43:59;;;;;;;0.00;0.00;;;8.40;99.90;;;;;;5013211;28;20191;-65
2023/01/12 04:46:24;;;;;;;0.00;0.00;;;8.40;99.90;;;;;;5008841;28;20229;-65
2023/01/12 04:48:50;;;;;;;0.00;0.00;;;8.40;99.90;;;;;;5013968;28;20171;-65
2023/01/12 04:51:15;;;;;;;0.00;0.00;;;8.50;99.90;;;;;;5009249;28;20273;-65
2023/01/12 04:53:41;;;;;;;0.00;0.00;;;8.50;99.90;;;;;;5013149;28;20218;-64
2023/01/12 04:56:07;;;;;;;0.00;0.00;;;8.50;99.90;;;;;;4995347;28;20550;-65
2023/01/12 04:58:33;;;;;;;0.00;0.00;;;8.60;99.90;;;;;;5004613;28;20175;-64
2023/01/12 05:01:10;;;;;;;0.00;0.00;;;8.60;99.90;;;;;;5013355;28;20187;-64
2023/01/12 05:03:36;;;;;;;0.00;0.00;;;8.70;99.90;;;;;;5013013;28;20233;-67
2023/01/12 05:06:03;;;;;;;0.00;0.00;;;8.70;99.90;;;;;;5013137;28;20273;-61
2023/01/12 05:11:13;;;;;;;0.00;0.00;;;8.70;99.90;;;;;;5013340;28;20193;-60
2023/01/12 05:13:39;;;;;;;0.00;0.00;;;8.70;99.90;;;;;;5013116;28;20170;-65
2023/01/12 05:16:15;;;;;;;0.00;0.00;;;8.70;99.90;;;;;;5013042;28;20186;-68
2023/01/12 05:18:43;;;;;;;0.20;0.20;;;8.70;99.90;;;;;;5012450;28;20240;-65
2023/01/12 05:21:09;;;;;;;0.00;0.00;;;8.70;99.90;;;;;;5013176;28;20183;-64
2023/01/12 05:23:35;;;;;;;0.00;0.00;;;8.70;99.90;;;;;;5012756;28;20183;-67
2023/01/12 05:26:01;;;;;;;0.00;0.00;;;8.80;99.90;;;;;;4997105;28;20705;-66
2023/01/12 05:28:28;;;;;;;0.00;0.00;;;8.80;99.90;;;;;;4979279;28;20175;-64
2023/01/12 05:30:54;;;;;;;0.00;0.00;;;8.80;99.90;;;;;;5002304;28;20176;-64
2023/01/12 05:33:20;;;;;;;0.00;0.00;;;8.80;99.90;;;;;;4993597;28;20569;-63
2023/01/12 05:35:46;;;;;;;0.00;0.00;;;8.80;99.90;;;;;;5010375;28;20275;-64
2023/01/12 05:38:11;;;;;;;0.00;0.00;;;8.80;99.90;;;;;;5012965;28;20652;-65
2023/01/12 05:40:37;;;;;;;0.00;0.00;;;8.80;99.90;;;;;;5012834;28;20692;-64
2023/01/12 05:45:47;;;;;;;1.40;1.30;;;8.80;99.90;;;;;;5012166;28;20244;-67
2023/01/12 05:48:12;;;;;;;0.00;0.00;;;8.80;99.90;;;;;;5012710;28;20618;-66
2023/01/12 05:50:38;;;;;;;0.00;0.00;;;8.70;99.90;;;;;;5012482;28;20186;-66
2023/01/12 05:53:03;;;;;;;0.00;0.00;;;8.80;99.90;;;;;;5012557;28;20712;-66
2023/01/12 05:55:29;;;;;;;0.00;0.00;;;8.80;99.90;;;;;;5012622;28;20348;-66
2023/01/12 05:57:54;;;;;;;0.00;0.00;;;8.70;99.90;;;;;;5012648;28;20175;-67
2023/01/12 06:00:20;;;;;;;0.00;0.00;;;8.70;99.90;;;;;;4995100;28;20187;-66
2023/01/12 06:02:46;;;;;;;0.00;0.00;;;8.70;99.90;;;;;;5012609;28;20203;-67
2023/01/12 06:05:11;;;;;;;0.00;0.00;;;8.70;99.90;;;;;;5005195;28;20652;-66
2023/01/12 06:07:37;;;;;;;0.00;0.00;;;8.70;99.90;;;;;;5009883;28;20190;-66
2023/01/12 06:10:04;;;;;;;0.00;0.00;;;8.70;99.90;;;;;;5009241;28;20187;-66
2023/01/12 06:15:14;;;;;;;0.00;0.00;;;8.60;99.90;;;;;;4992767;28;20238;-66
2023/01/12 06:17:39;;;;;;;0.00;0.00;;;8.60;99.90;;;;;;4983847;28;20187;-66
2023/01/12 06:20:06;;;;;;;0.00;0.00;;;8.60;99.90;;;;;;5012463;28;20179;-66
2023/01/12 06:22:31;;;;;;;0.00;0.00;;;8.60;99.90;;;;;;5012012;28;20178;-66
2023/01/12 06:24:57;;;;;;;0.00;0.00;;;8.60;99.90;;;;;;5012089;28;20202;-66
2023/01/12 06:27:22;;;;;;;0.00;0.00;;;8.50;99.90;;;;;;5012022;28;20179;-66
2023/01/12 06:29:48;;;;;;;0.00;0.00;;;8.60;99.90;;;;;;5011990;28;20653;-66
2023/01/12 06:32:13;;;;;;;0.00;0.00;;;8.60;99.90;;;;;;5012223;28;20185;-67
2023/01/12 06:34:39;;;;;;;0.00;0.00;;;8.50;99.90;;;;;;5012128;28;20218;-66
2023/01/12 06:37:07;;;;;;;0.00;0.00;;;8.60;99.90;;;;;;5012202;28;20209;-66
2023/01/12 06:39:33;;;;;;;0.00;0.00;;;8.60;99.90;;;;;;5012019;28;20171;-66
2023/01/12 06:44:43;;;;;;;0.00;0.00;;;8.60;99.90;;;;;;5011838;28;20744;-66
2023/01/12 06:47:09;;;;;;;0.15;0.15;;;8.60;99.90;;;;;;5011943;28;20258;-66
2023/01/12 06:49:34;;;;;;;0.00;0.00;;;8.60;99.90;;;;;;5011972;28;20170;-66
2023/01/12 06:52:00;;;;;;;0.00;0.00;;;8.60;99.90;;;;;;5012109;28;20653;-67
2023/01/12 06:54:25;;;;;;;0.00;0.00;;;8.60;99.90;;;;;;4994391;28;20222;-67
2023/01/12 06:56:51;;;;;;;0.00;0.00;;;8.60;99.90;;;;;;5011876;28;20175;-66
2023/01/12 06:59:16;;;;;;;0.00;0.00;;;8.60;99.90;;;;;;5012049;28;20178;-67
2023/01/12 07:01:42;;;;;;;0.13;0.13;;;8.60;99.90;;;;;;5011721;28;20260;-66
2023/01/12 07:04:08;;;;;;;0.00;0.00;;;8.60;99.90;;;;;;5011610;28;20314;-66
2023/01/12 07:06:34;;;;;;;0.00;0.00;;;8.60;99.90;;;;;;5011697;28;20221;-67
2023/01/12 07:08:59;;;;;;;0.00;0.00;;;8.70;99.90;;;;;;5011832;28;20171;-66
2023/01/12 07:11:25;;;;;;;0.00;0.00;;;8.70;99.90;;;;;;5011730;28;20194;-66
2023/01/12 07:13:51;;;;;;;0.00;0.00;;;8.70;99.90;;;;;;5011831;28;20171;-66
2023/01/12 07:16:16;;;;;;;0.00;0.00;;;8.80;99.90;;;;;;5011846;28;20179;-66
2023/01/12 07:18:42;;;;;;;0.00;0.00;;;8.80;99.90;;;;;;5011664;28;20217;-67
2023/01/12 07:21:09;;;;;;;0.00;0.00;;;8.80;99.90;;;;;;4994216;28;20187;-66
2023/01/12 07:23:36;;;;;;;0.00;0.00;;;8.80;99.90;;;;;;5014781;28;20182;-66
2023/01/12 07:26:02;;;;;;;0.00;0.00;;;8.80;99.90;;;;;;5015576;28;20234;-66
2023/01/12 07:28:30;;;;;;;0.00;0.00;;;8.80;99.90;;;;;;5015217;28;20186;-66
2023/01/12 07:31:00;;;;;;;0.00;0.00;;;8.80;99.90;;;;;;5015452;28;20719;-67
2023/01/12 07:33:26;;;;;;;0.00;0.00;;;8.80;99.90;;;;;;5015407;28;20179;-67
2023/01/12 07:35:51;;;;;;;0.00;0.00;;;8.90;99.90;;;;;;5015408;28;20187;-66
2023/01/12 07:38:17;;;;;;;0.00;0.00;;;8.90;99.90;;;;;;4997825;28;20267;-66
2023/01/12 07:40:42;;;;;;;0.15;0.15;;;8.90;99.90;;;;;;5015183;28;20314;-66
2023/01/12 07:43:10;;;;;;;0.00;0.00;;;8.90;99.90;;;;;;4997601;28;20174;-66
2023/01/12 07:45:36;;;;;;;0.00;0.00;;;8.90;99.90;;;;;;5015072;28;20206;-66
2023/01/12 07:48:02;;;;;;;0.03;0.03;;;8.90;99.90;;;;;;4997480;28;20170;-66
2023/01/12 07:50:28;;;;;;;0.00;0.00;;;9.00;99.90;;;;;;5014920;28;20178;-66
2023/01/12 07:52:54;;;;;;;0.40;0.40;;;9.00;99.90;;;;;;5014955;28;20645;-66
2023/01/12 07:55:20;;;;;;;0.00;0.00;;;9.00;99.90;;;;;;4997421;28;20222;-67
2023/01/12 07:58:00;;;;;;;0.00;0.00;;;9.00;99.90;;;;;;5014916;28;20182;-66
2023/01/12 08:00:27;;;;;;;0.00;0.00;;;9.00;99.90;;;;;;5014967;28;20171;-66
2023/01/12 08:02:54;;;;;;;0.00;0.00;;;9.00;99.90;;;;;;5014893;28;20202;-67
2023/01/12 08:05:20;;;;;;;0.00;0.00;;;9.10;99.90;;;;;;5014738;28;20211;-67
2023/01/12 08:07:46;;;;;;;0.00;0.00;;;9.10;99.90;;;;;;5014765;28;20182;-67
2023/01/12 08:10:13;;;;;;;0.00;0.00;;;9.10;99.90;;;;;;5014849;28;20202;-66
2023/01/12 08:12:40;;;;;;;0.00;0.00;;;9.10;99.90;;;;;;5014652;28;20178;-66
2023/01/12 08:15:07;;;;;;;0.00;0.00;;;9.10;99.90;;;;;;5014735;28;20183;-66
2023/01/12 08:17:39;;;;;;;0.00;0.00;;;9.10;99.90;;;;;;5011194;28;20205;-66
2023/01/12 08:20:11;;;;;;;0.00;0.00;;;9.10;99.90;;;;;;5014954;28;20543;-66
2023/01/12 08:22:42;;;;;;;0.00;0.00;;;9.20;99.90;;;;;;5014178;28;20182;-66
2023/01/12 08:25:15;;;;;;;0.47;0.20;;;9.20;99.90;;;;;;5014435;28;20598;-66
2023/01/12 08:27:46;;;;;;;0.00;0.00;;;9.20;99.90;;;;;;4996915;28;20654;-66
2023/01/12 08:30:14;;;;;;;0.00;0.00;;;9.20;99.90;;;;;;5014522;28;20186;-66
2023/01/12 08:32:40;;;;;;;0.00;0.00;;;9.20;99.90;;;;;;5014245;28;20187;-66
2023/01/12 08:35:07;;;;;;;0.00;0.00;;;9.20;99.90;;;;;;5013168;28;20236;-66
2023/01/12 08:37:33;;;;;;;0.00;0.00;;;9.20;99.90;;;;;;5014081;28;20206;-66
2023/01/12 08:39:59;;;;;;;0.00;0.00;;;9.20;99.90;;;;;;5014187;28;20190;-66
2023/01/12 08:42:26;;;;;;;0.00;0.00;;;9.30;99.90;;;;;;5014072;28;20233;-66
2023/01/12 08:44:53;;;;;;;0.00;0.00;;;9.30;99.90;;;;;;5014046;28;20207;-66
2023/01/12 08:47:21;;;;;;;0.00;0.00;;;9.30;99.90;;;;;;5014187;28;20179;-66
2023/01/12 08:49:47;;;;;;;0.00;0.00;;;9.30;99.90;;;;;;5013971;28;20185;-66
2023/01/12 08:52:14;;;;;;;0.00;0.00;;;9.30;99.90;;;;;;5014125;28;20637;-66
2023/01/12 08:54:40;;;;;;;0.00;0.00;;;9.40;99.90;;;;;;5013423;28;20713;-66
2023/01/12 08:57:05;;;;;;;0.00;0.00;;;9.40;99.90;;;;;;5013943;28;20190;-66
2023/01/12 08:59:31;;;;;;;0.00;0.00;;;9.40;99.90;;;;;;5013795;28;20186;-66
2023/01/12 09:01:56;;;;;;;0.00;0.00;;;9.40;99.90;;;;;;5013847;28;20182;-66
2023/01/12 09:04:22;;;;;;;0.00;0.00;;;9.50;99.90;;;;;;5013772;28;20175;-66
2023/01/12 09:06:47;;;;;;;0.00;0.00;;;9.50;99.90;;;;;;5013414;28;20708;-66
2023/01/12 09:09:18;;;;;;;0.00;0.00;;;9.50;99.90;;;;;;5013629;28;20175;-66
2023/01/12 09:11:44;;;;;;;0.00;0.00;;;9.50;99.90;;;;;;4995897;28;20190;-66
2023/01/12 09:14:11;;;;;;;0.00;0.00;;;9.60;99.90;;;;;;5013407;28;20175;-66
2023/01/12 09:16:37;;;;;;;0.00;0.00;;;9.50;99.90;;;;;;5013425;28;20175;-66
2023/01/12 09:19:02;;;;;;;0.00;0.00;;;9.60;99.90;;;;;;5013132;28;20286;-67
2023/01/12 09:21:29;;;;;;;0.00;0.00;;;9.60;99.90;;;;;;5013427;28;20241;-67
2023/01/12 09:23:55;;;;;;;0.00;0.00;;;9.70;99.90;;;;;;5013305;28;20584;-67
2023/01/12 09:26:24;;;;;;;0.00;0.00;;;9.70;99.90;;;;;;5013168;28;20218;-67
2023/01/12 09:28:50;;;;;;;0.00;0.00;;;9.70;99.90;;;;;;5013059;28;20255;-67
2023/01/12 09:31:18;;;;;;;0.00;0.00;;;9.70;99.90;;;;;;5013233;28;20261;-67
2023/01/12 09:33:44;;;;;;;0.00;0.00;;;9.80;99.90;;;;;;5012889;28;20175;-67
2023/01/12 09:36:12;;;;;;;0.00;0.00;;;9.80;99.90;;;;;;5013092;28;20179;-67
2023/01/12 09:38:40;;;;;;;0.00;0.00;;;9.70;99.90;;;;;;5013009;28;20795;-67
2023/01/12 09:47:55;;;;;;;0.00;0.00;;;9.80;99.90;;;;;;5013286;28;20193;-67
2023/01/12 09:50:36;;;;;;;0.00;0.00;;;9.80;99.90;;;;;;5010641;28;20191;-67
2023/01/12 09:53:01;;;;;;;0.00;0.00;;;9.80;99.90;;;;;;5012690;28;20529;-67
2023/01/12 09:55:45;;;;;;;0.00;0.00;;;9.80;99.90;;;;;;5012690;28;20182;-67
2023/01/12 09:58:28;;;;;;;0.00;0.00;;;9.80;99.90;;;;;;4995048;28;20546;-67
2023/01/12 10:00:56;;;;;;;0.00;0.00;;;9.80;99.90;;;;;;5012812;28;20274;-67
2023/01/12 10:03:30;;;;;;;0.00;0.00;;;9.80;99.90;;;;;;5012637;28;20209;-67
2023/01/12 10:05:59;;;;;;;0.00;0.00;;;9.90;99.90;;;;;;5012675;28;20217;-67
2023/01/12 10:08:28;;;;;;;0.00;0.00;;;9.90;99.90;;;;;;5012364;28;20217;-67
2023/01/12 10:11:32;;;;;;;0.00;0.00;;;9.90;99.90;;;;;;5012690;28;20186;-67
2023/01/12 10:14:19;;;;;;;0.00;0.00;;;10.00;99.90;;;;;;4974957;28;20240;-67
2023/01/12 10:17:03;;;;;;;0.00;0.00;;;10.00;99.90;;;;;;5012419;28;20198;-67
2023/01/12 10:19:51;;;;;;;0.00;0.00;;;10.10;99.90;;;;;;4996854;28;20202;-67
2023/01/12 10:22:35;;;;;;;0.00;0.00;;;10.10;99.90;;;;;;4975372;28;20179;-67
2023/01/12 10:26:00;;;;;;;0.00;0.00;;;10.10;99.90;;;;;;4992610;28;20191;-66
2023/01/12 10:28:29;;;;;;;0.00;0.00;;;10.10;99.90;;;;;;4919088;29;20648;-67
2023/01/12 10:30:56;;;;;;;0.00;0.00;;;10.20;99.90;;;;;;4932770;29;20182;-66
2023/01/12 10:33:24;;;;;;;0.00;0.00;;;10.20;99.90;;;;;;4962324;28;20265;-67
2023/01/12 10:36:09;;;;;;;0.00;0.00;;;10.30;99.90;;;;;;4992632;28;20184;-67
2023/01/12 10:38:38;;;;;;;0.00;0.00;;;10.30;99.90;;;;;;4992495;28;20175;-67
2023/01/12 10:41:09;;;;;;;0.00;0.00;;;10.30;99.90;;;;;;4992545;28;20190;-67
2023/01/12 10:43:36;;;;;;;0.00;0.00;;;10.40;99.90;;;;;;4981569;28;20585;-67
2023/01/12 10:46:09;;;;;;;0.00;0.00;;;10.40;99.90;;;;;;5012231;28;20217;-67
2023/01/12 10:48:37;;;;;;;0.00;0.00;;;10.40;99.90;;;;;;5012065;28;20171;-67
2023/01/12 10:51:06;;;;;;;1.45;1.02;;;10.40;99.90;;;;;;5012039;28;20193;-67
2023/01/12 10:53:42;;;;;;;0.28;0.28;;;10.40;99.90;;;;;;5011669;28;20225;-67
2023/01/12 10:56:28;;;;;;;0.00;0.00;;;10.40;99.90;;;;;;5011940;28;20257;-67
2023/01/12 10:59:05;;;;;;;0.00;0.00;;;10.50;99.90;;;;;;5016059;28;20182;-67
2023/01/12 11:01:49;;;;;;;0.00;0.00;;;10.50;99.90;;;;;;5016016;28;20571;-67
2023/01/12 11:04:20;;;;;;;0.00;0.00;;;10.40;99.90;;;;;;5016109;28;20181;-67
2023/01/12 11:07:12;;;;;;;0.00;0.00;;;10.50;99.90;;;;;;5015882;28;20278;-67
2023/01/12 11:09:39;;;;;;;0.00;0.00;;;10.50;99.90;;;;;;5015770;28;20210;-67
2023/01/12 11:12:33;;;;;;;0.00;0.00;;;10.50;99.90;;;;;;5015806;28;20233;-67
2023/01/12 11:15:11;;;;;;;0.00;0.00;;;10.60;99.90;;;;;;5015831;28;20673;-67
2023/01/12 11:18:04;;;;;;;0.00;0.00;;;10.60;99.90;;;;;;5015492;28;20183;-67
2023/01/12 11:20:33;;;;;;;0.00;0.00;;;10.70;99.90;;;;;;4995886;28;20843;-67
2023/01/12 11:23:09;;;;;;;0.00;0.00;;;10.80;99.90;;;;;;4978554;28;20650;-67
2023/01/12 11:25:41;;;;;;;0.00;0.00;;;10.90;99.90;;;;;;4995963;28;20250;-67
2023/01/12 11:28:20;;;;;;;0.00;0.00;;;10.90;99.90;;;;;;4995991;28;20225;-67
2023/01/12 11:30:51;;;;;;;0.00;0.00;;;11.00;99.90;;;;;;4995994;28;20171;-67
2023/01/12 11:33:38;;;;;;;0.00;0.00;;;11.10;99.90;;;;;;4995710;28;20187;-67
2023/01/12 11:36:25;;;;;;;0.00;0.00;;;11.20;99.90;;;;;;4978337;28;20187;-67
2023/01/12 11:38:57;;;;;;;0.00;0.00;;;11.30;99.90;;;;;;4995461;28;20207;-67
2023/01/12 11:43:47;;;;;;;0.00;0.00;;;11.40;99.90;;;;;;4995719;28;20258;-67
2023/01/12 11:44:39;;;;;;;0.00;0.00;;;11.50;99.90;;;;;;4988698;28;20198;-67
2023/01/12 11:47:19;;;;;;;0.00;0.00;;;11.60;99.90;;;;;;5015307;28;20187;-67
2023/01/12 11:50:05;;;;;;;0.00;0.00;;;11.60;99.90;;;;;;5014981;28;20186;-67
2023/01/12 11:52:31;;;;;;;0.22;0.20;;;11.60;99.90;;;;;;5014957;28;20175;-67
2023/01/12 11:54:57;;;;;;;0.00;0.00;;;11.60;99.90;;;;;;5015048;28;20257;-67
2023/01/12 11:57:55;;;;;;;0.00;0.00;;;11.60;99.90;;;;;;5015064;28;20210;-67
2023/01/12 12:00:29;;;;;;;0.00;0.00;;;11.60;99.90;;;;;;5014879;28;20261;-67
2023/01/12 12:03:08;;;;;;;0.00;0.00;;;11.60;99.90;;;;;;5015043;28;20182;-67
2023/01/12 12:05:51;;;;;;;0.00;0.00;;;11.60;99.90;;;;;;5014629;28;20198;-67
2023/01/12 12:08:38;;;;;;;0.00;0.00;;;11.60;99.90;;;;;;5014644;28;20175;-67
2023/01/12 12:11:30;;;;;;;0.00;0.00;;;11.50;99.90;;;;;;5014862;28;20190;-67
2023/01/12 12:14:32;;;;;;;0.00;0.00;;;11.60;99.90;;;;;;5014659;28;20262;-67
2023/01/12 12:17:14;;;;;;;0.00;0.00;;;11.60;99.90;;;;;;5014561;28;20184;-65
2023/01/12 12:19:46;;;;;;;0.00;0.00;;;11.70;99.90;;;;;;5014189;28;20213;-66
2023/01/12 12:22:43;;;;;;;0.00;0.00;;;11.70;99.90;;;;;;5011564;28;20737;-66
2023/01/12 12:25:16;;;;;;;0.00;0.00;;;11.70;99.90;;;;;;4994822;28;20230;-66
2023/01/12 12:27:57;;;;;;;0.00;0.00;;;11.80;99.90;;;;;;4997646;28;20188;-66
2023/01/12 12:30:38;;;;;;;0.20;0.20;;;11.80;99.90;;;;;;4997494;28;20183;-66
2023/01/12 12:33:31;;;;;;;0.00;0.00;;;11.80;99.90;;;;;;4994776;28;20306;-66
2023/01/12 12:36:05;;;;;;;0.00;0.00;;;11.70;99.90;;;;;;4994844;28;20186;-66
2023/01/12 12:38:59;;;;;;;0.00;0.00;;;11.60;99.90;;;;;;4977181;28;20179;-66
2023/01/12 12:47:44;;;;;;;0.00;0.00;;;11.40;99.90;;;;;;5014408;28;20757;-66
2023/01/12 12:50:21;;;;;;;0.00;0.00;;;11.40;99.90;;;;;;5013606;28;20179;-66
2023/01/12 12:52:59;;;;;;;0.00;0.00;;;11.40;99.90;;;;;;5013853;28;20189;-66
2023/01/12 12:55:25;;;;;;;0.00;0.00;;;11.40;99.90;;;;;;5013799;28;20198;-66
2023/01/12 12:57:58;;;;;;;0.00;0.00;;;11.30;99.90;;;;;;5014005;28;20185;-67
2023/01/12 13:00:41;;;;;;;0.00;0.00;;;11.30;99.90;;;;;;5013637;28;20201;-67
2023/01/12 13:03:07;;;;;;;0.00;0.00;;;11.30;99.90;;;;;;5013774;28;20253;-67
2023/01/12 13:05:43;;;;;;;0.00;0.00;;;11.20;99.90;;;;;;5013460;28;20245;-68
2023/01/12 13:08:24;;;;;;;0.00;0.00;;;11.20;99.90;;;;;;5013458;28;20178;-67
2023/01/12 13:10:54;;;;;;;0.00;0.00;;;11.20;99.90;;;;;;5013356;28;20637;-67
2023/01/12 13:13:34;;;;;;;0.00;0.00;;;11.20;99.90;;;;;;5013468;28;20171;-68
2023/01/12 13:16:26;;;;;;;0.00;0.00;;;11.20;99.90;;;;;;5013295;28;20198;-68
2023/01/12 13:18:51;;;;;;;0.00;0.00;;;11.20;99.90;;;;;;5013173;28;20178;-67
2023/01/12 13:21:26;;;;;;;0.00;0.00;;;11.20;99.90;;;;;;5012767;28;20266;-68
2023/01/12 13:23:53;;;;;;;0.00;0.00;;;11.20;99.90;;;;;;5013305;28;20175;-68
2023/01/12 13:26:25;;;;;;;0.00;0.00;;;11.20;99.90;;;;;;4995490;28;20230;-67
2023/01/12 13:29:21;;;;;;;0.00;0.00;;;11.20;99.90;;;;;;5012843;28;20269;-67
2023/01/12 13:31:47;;;;;;;0.00;0.00;;;11.20;99.90;;;;;;5012896;28;20182;-67
2023/01/12 13:34:44;;;;;;;0.00;0.00;;;11.10;99.90;;;;;;5013024;28;20206;-67
2023/01/12 13:37:33;;;;;;;0.00;0.00;;;11.10;99.90;;;;;;5013099;28;20174;-67
2023/01/12 13:40:21;;;;;;;0.00;0.00;;;11.20;99.90;;;;;;5012992;28;20211;-68
2023/01/12 13:45:33;;;;;;;0.00;0.00;;;11.10;99.90;;;;;;5013031;28;20260;-68
2023/01/12 13:47:58;;;;;;;0.00;0.00;;;11.10;99.90;;;;;;5013028;28;20178;-67
2023/01/12 13:50:26;;;;;;;0.00;0.00;;;11.20;99.90;;;;;;5012362;28;20183;-68
2023/01/12 13:53:00;;;;;;;0.00;0.00;;;11.10;99.90;;;;;;5012702;28;20182;-66
2023/01/12 13:55:32;;;;;;;0.00;0.00;;;11.10;99.90;;;;;;5011336;28;20195;-66
2023/01/12 13:58:04;;;;;;;0.00;0.00;;;11.10;99.90;;;;;;5002538;28;20175;-66
2023/01/12 14:00:31;;;;;;;0.00;0.00;;;11.20;99.90;;;;;;5012609;28;20215;-67